Tiempo atmosférico en la estación meteorológica de Calanda, Teruel (459 m.)



Fecha
DESCASC
Temp. máxima en grados centígrados (hora)
DESCASC
Temp. mínima en grados centígrados (hora)
DESCASC
Temp. media en grados centígrados
DESCASC
Racha de viento máxima en m/sg (hora)
DESCASC
Velocidad máxima media en intervalos de 10 minutos(hora)
DESCASC
Precipitaciones diarias en mm
DESCASC
Precipitaciones de 00:00 a 06:00 en mm
DESCASC
Precipitaciones de 06:00 a 12:00 en mm
DESCASC
Precipitaciones de 12:00 a 18:00 en mm
DESCASC
Precipitaciones de 18:00 a 24:00 en mm
DESCASC
06-07-2020 31.2 (17:20) 18.4 (06:30) 24.8 10.83 (15:30) 6.67 (19:10) 0 0 0 0 0
05-07-2020 33.5 (18:10) 17.4 (06:30) 25.4 7.5 (15:40) 4.17 (15:00) 0 0 0 0 0
04-07-2020 30.9 (18:20) 12.5 (07:00) 21.7 8.33 (15:20) 5 (15:20) 0 0 0 0 0
03-07-2020 27.3 (18:10) 16.8 (03:50) 22 10.83 (14:00) 5.83 (11:10) 0 0 0 0 0
02-07-2020 30.9 (18:50) 17.9 (00:00) 24.4 12.5 (21:10) 8.61 (21:30) 0 0 0 0 0
01-07-2020 35.7 (19:00) 18 (00:00) 26.9 10.28 (21:20) 6.11 (21:30) 0 0 0 0 0
30-06-2020 34.5 (17:20) 17.8 (00:00) 26.1 8.33 (19:40) 5.28 (18:30) 0 0 0 0 0
29-06-2020 33.5 (17:00) 19.8 (00:00) 26.6 10.28 (23:10) 5.28 (23:10) 0 0 0 0 0
28-06-2020 33.7 (18:30) 20.1 (00:00) 26.9 8.33 (23:00) 5 (19:30) 0 0 0 0 0
27-06-2020 32.3 (18:30) 16.6 (00:00) 24.4 8.89 (02:10) 4.72 (02:50) 0 0 0 0 0
26-06-2020 33.4 (14:40) 19.2 (00:00) 26.3 15 (19:00) 9.17 (17:30) 0 0 0 0 0
25-06-2020 34.8 (16:20) 17.3 (00:00) 26 13.89 (20:00) 9.72 (20:00) 0 0 0 0 0
24-06-2020 32.8 (14:20) 18.1 (00:00) 25.4 20.28 (17:10) 11.94 (17:10) 0 0 0 0 0
23-06-2020 34.2 (18:10) 17.3 (00:00) 25.8 9.44 (19:10) 5 (19:20) 0 0 0 0 0
22-06-2020 31.5 (18:50) 18.8 (00:00) 25.1 8.89 (01:10) 5.28 (01:20) 0 0 0 0 0
21-06-2020 31.9 (15:40) 17.9 (00:00) 24.9 9.17 (16:40) 5.56 (16:40) 0 0 0 0 0
20-06-2020 30.1 (17:20) 16.5 (00:00) 23.3 6.94 (14:40) 3.33 (02:10) 0 0 0 0 0
19-06-2020 27.4 (18:20) 15.6 (00:00) 21.5 8.61 (22:00) 5.56 (20:30) 0 0 0 0 0
18-06-2020 24.4 (17:00) 13.5 (06:00) 18.9 7.22 (01:00) 3.89 (01:10) 4.4 4.4 0 0 0
17-06-2020 23.4 (19:20) 12.5 (00:00) 17.9 7.78 (23:20) 4.72 (11:50) 0 0 0 0 0
16-06-2020 24.4 (17:40) 14.8 (00:00) 19.6 8.89 (21:40) 5 (21:40) 8 0 1.8 4.2 2
15-06-2020 28.3 (16:20) 16.1 (00:00) 22.2 7.78 (16:30) 4.44 (17:30) 0 0 0 0 0
14-06-2020 27.6 (19:10) 13.8 (00:00) 20.7 7.5 (14:50) 4.44 (06:20) 0 0 0 0 0
13-06-2020 25.1 (18:30) 12.7 (00:00) 18.9 11.11 (16:10) 6.39 (10:30) 0 0 0 0 0
12-06-2020 25.3 (17:30) 12 (00:00) 18.6 9.17 (01:10) 5.28 (01:20) 0 0 0 0 0
11-06-2020 26.4 (17:10) 14.2 (00:00) 20.3 7.22 (21:30) 4.17 (23:50) 0 0 0 0 0
10-06-2020 23.3 (17:40) 11 (00:00) 17.1 8.89 (18:20) 5.56 (10:40) 0 0 0 0 0

Gráficas

Temp. máximas Temp. mínimas Temp. medias Precipitaciones Rachas de viento máximas Velocidades máximas media en intervalos de 10 minutos

Datos horarios

Fecha y hora oficial Temperatura (ºC) Velocidad del viento (km/h) Dirección del viento Racha (km/h) Dirección de racha Precipitación (mm) Presión (hPa) Tendencia (hPa) Humedad (%)
2020-07-09 23:00:00 27.4 15 Sur 32 Sur 0 963.2 2 51
2020-07-09 22:00:00 27.1 2 Norte 11 Nordeste 0 962 -- 46
2020-07-09 21:00:00 30 4 Nordeste 19 Nordeste 0 961.8 -- 40
2020-07-09 20:00:00 32 10 Norte 20 Norte 0 961.2 -- 30
2020-07-09 19:00:00 31.9 9 Norte 19 Nordeste 0 961.5 -- 25
2020-07-09 18:00:00 32.2 9 Norte 18 Norte 0 962.2 -- 28
2020-07-09 17:00:00 31.5 10 Norte 17 Norte 0 962.9 -- 31
2020-07-09 16:00:00 32.6 5 Nordeste 16 Norte 0 963.2 -- 28
2020-07-09 15:00:00 30.1 9 Noroeste 16 Noroeste 0 963.8 -- 33
2020-07-09 14:00:00 29.9 6 Este 15 Este 0 964.1 -- 34
2020-07-09 13:00:00 27.1 2 Sudeste 13 Norte 0 965 -- 42
2020-07-09 12:00:00 26.2 7 Noroeste 16 Norte 0 965.1 -- 46
2020-07-09 11:00:00 26.2 5 Este 12 Nordeste 0 965.4 -- 46
2020-07-09 10:00:00 26 4 Norte 11 Sudoeste 0 964.1 -- 44
2020-07-09 09:00:00 24.2 7 Sudoeste 12 Sudoeste 0 964.4 -- 47
2020-07-09 08:00:00 20.8 3 Sudoeste 7 Sudeste 0 963.8 -- 76
2020-07-09 07:00:00 20.1 3 Este 10 Sudeste 0 963.9 -- 71
2020-07-09 06:00:00 21.6 4 Este 24 Oeste 0 963.5 -- 54
2020-07-09 05:00:00 23.1 9 Oeste 17 Sudoeste 0 962.8 -- 51
2020-07-09 04:00:00 21.1 7 Oeste 11 Oeste 0 961.7 -- 63
2020-07-09 03:00:00 23.2 2 Oeste 20 Noroeste 0 961.9 -- 56
2020-07-09 02:00:00 28 13 Oeste 29 Sur 0 962.2 -- 31
2020-07-09 01:00:00 30.2 10 Sur 35 Sur 0 961.8 -- 19
2020-07-09 00:00:00 30.1 20 Sudoeste 35 Sudoeste 0 962.7 -- 21
2020-07-08 23:00:00 27.5 12 Sur 25 Sur 0 963.4 -- 28
2020-07-08 22:00:00 28.6 7 Sudoeste 21 Noroeste 0 963.9 -- 26
2020-07-08 21:00:00 28.8 13 Oeste 35 Sudoeste 0 965 -- 43
2020-07-08 20:00:00 29.8 14 Sudoeste 40 Sur 0 963.1 -- 25
2020-07-08 19:00:00 30.8 5 Este 20 Nordeste 0 961.8 -- 38
2020-07-08 18:00:00 33.3 11 Nordeste 23 Norte 0 961.1 -- 28
2020-07-08 17:00:00 34.7 7 Norte 22 Norte 0 961.7 -- 23
2020-07-08 16:00:00 34.5 6 Nordeste 17 Norte 0 961.9 -- 23
2020-07-08 15:00:00 32 8 Este 17 Este 0 962.5 -- 28
2020-07-08 14:00:00 29.3 5 Nordeste 27 Este 0 963.5 -- 30
2020-07-08 13:00:00 27.2 6 Nordeste 28 Noroeste 0 964.7 -- 35
2020-07-08 12:00:00 27.6 5 Nordeste 16 Este 0 964.5 -- 33
2020-07-08 11:00:00 25.4 5 Nordeste 15 Norte 0 964.6 -- 38
2020-07-08 10:00:00 23.6 3 Sudeste 9 Nordeste 0 964.4 -- 42
2020-07-08 09:00:00 21.6 2 Nordeste 6 Norte 0 964.2 -- 47
2020-07-08 08:00:00 19.7 3 Oeste 9 Oeste 0 963.8 -- 45
2020-07-08 07:00:00 17.2 5 Oeste 10 Oeste 0 963.3 -- 50
2020-07-08 06:00:00 17.6 5 Oeste 9 Oeste 0 963 -- 45
2020-07-08 05:00:00 18.5 0 Calma 9 Oeste 0 963.1 -- 41
2020-07-08 04:00:00 19.4 7 Oeste 12 Oeste 0 963.5 -- 37
2020-07-08 03:00:00 20.6 7 Oeste 13 Sudoeste 0 963.5 -- 32
2020-07-08 02:00:00 22.1 7 Sudoeste 18 Sudoeste 0 963.5 -- 28
2020-07-08 01:00:00 23.2 14 Sudoeste 18 Sudoeste 0 963.3 -- 26
2020-07-08 00:00:00 22.4 5 Sudoeste 12 Oeste 0 963 -- 25
2020-07-07 23:00:00 22.6 3 Oeste 7 Oeste 0 962.7 -- 24
2020-07-07 22:00:00 24.7 2 Noroeste 5 Noroeste 0 962.3 -- 23
2020-07-07 21:00:00 29.6 3 Este 11 Nordeste 0 961.9 -- 14
2020-07-07 20:00:00 31.4 9 Norte 15 Norte 0 961.7 -1.1 10
2020-07-07 19:00:00 31.3 7 Norte 19 Noroeste 0 961.8 -1.3 12
2020-07-07 18:00:00 31.2 8 Norte 21 Norte 0 962.4 -1 13
2020-07-07 17:00:00 30.3 14 Norte 24 Norte 0 962.8 -1.1 14
2020-07-07 16:00:00 29.8 11 Norte 24 Norte 0 963.1 -1.3 15
2020-07-07 15:00:00 28.8 8 Norte 24 Norte 0 963.4 -1.4 21
2020-07-07 14:00:00 26.6 10 Norte 21 Noroeste 0 963.9 -1.2 25
2020-07-07 13:00:00 24.6 10 Noroeste 19 Norte 0 964.4 -0.8 29
2020-07-07 12:00:00 22.6 10 Norte 19 Norte 0 964.8 -0.4 31
2020-07-07 11:00:00 20.5 9 Norte 18 Norte 0 965.1 -0.1 34
2020-07-07 10:00:00 19.3 6 Noroeste 15 Norte 0 965.2 0.3 39
2020-07-07 09:00:00 17.2 3 Este 10 Sudeste 0 965.2 0.4 50
2020-07-07 08:00:00 16.3 5 Este 10 Este 0 965.2 0.6 55
2020-07-07 07:00:00 14.3 5 Este 12 Sudeste 0 964.9 -- 63
2020-07-07 06:00:00 13.1 3 Este 9 Este 0 964.8 -- 66
2020-07-07 05:00:00 14.3 2 Norte 7 Sudeste 0 964.6 -- 60
2020-07-07 04:00:00 15.3 4 Este 7 Este 0 964.7 -- 57
2020-07-07 03:00:00 16.5 0 Calma 8 Norte 0 964.9 -- 53
2020-07-07 02:00:00 18.1 6 Oeste 14 Oeste 0 965.1 -- 45
2020-07-07 01:00:00 20 8 Oeste 15 Oeste 0 965.5 -- 44
2020-07-07 00:00:00 21 8 Oeste 14 Oeste 0 965.5 -- 45
2020-07-06 23:00:00 22.3 11 Noroeste 26 Noroeste 0 965.4 -- 43
2020-07-06 22:00:00 24.1 14 Noroeste 28 Noroeste 0 964.5 -- 39
2020-07-06 21:00:00 26.4 17 Noroeste 37 Noroeste 0 964 -- 30
2020-07-06 20:00:00 28.5 21 Noroeste 36 Noroeste 0 963.7 -- 28
2020-07-06 19:00:00 29.6 22 Noroeste 37 Noroeste 0 963.6 -- 28
2020-07-06 18:00:00 30.5 20 Noroeste 37 Norte 0 963.6 -- 27
2020-07-06 17:00:00 30.7 19 Noroeste 36 Norte 0 963.9 -- 28
2020-07-06 16:00:00 30.4 20 Noroeste 39 Norte 0 964.3 -- 30
2020-07-06 15:00:00 30 17 Noroeste 37 Noroeste 0 964.7 -- 31
2020-07-06 14:00:00 28.8 15 Noroeste 36 Noroeste 0 965.1 -- 33
2020-07-06 13:00:00 27.5 18 Noroeste 34 Noroeste 0 965.5 -- 36
2020-07-06 12:00:00 26.5 16 Noroeste 30 Noroeste 0 965.7 -- 38
2020-07-06 11:00:00 24.5 18 Noroeste 32 Noroeste 0 966.1 -- 42
2020-07-06 10:00:00 23.9 19 Noroeste 31 Noroeste 0 966.2 -- 42
2020-07-06 09:00:00 23.1 13 Oeste 26 Noroeste 0 966.1 -- 44
2020-07-06 08:00:00 21.6 2 Norte 8 Sur 0 965.9 -- 50
2020-07-06 07:00:00 18.4 3 Oeste 8 Oeste 0 965.6 -- 58
2020-07-06 06:00:00 18.7 4 Oeste 9 Oeste 0 965.3 -- 56
2020-07-06 05:00:00 20.8 5 Noroeste 11 Oeste 0 965.2 -- 49
2020-07-06 04:00:00 22.9 9 Oeste 22 Oeste 0 965.2 -- 42
2020-07-06 03:00:00 23.8 12 Sudoeste 22 Sudoeste 0 965.4 -- 39
2020-07-06 02:00:00 23.8 8 Oeste 14 Sudoeste 0 965.5 -- 39
2020-07-06 01:00:00 24.1 7 Oeste 10 Oeste 0 965.3 -- 36
2020-07-06 00:00:00 24.7 6 Oeste 13 Oeste 0 964.8 -- 32
2020-07-05 23:00:00 24.5 8 Oeste 10 Oeste 0 964.6 -- 32
2020-07-05 22:00:00 27.2 6 Oeste 9 Norte 0 964 -- 27
2020-07-05 21:00:00 31.5 7 Norte 15 Nordeste 0 963.9 -- 19
2020-07-05 20:00:00 32.6 10 Norte 21 Norte 0 963.8 -- 17
2020-07-05 19:00:00 33.2 11 Noroeste 23 Norte 0 964.1 -- 17
2020-07-05 18:00:00 33.2 11 Norte 24 Norte 0 964.6 -- 18
2020-07-05 17:00:00 32.9 9 Norte 25 Noroeste 0 965.3 -- 20
2020-07-05 16:00:00 32.5 14 Norte 27 Norte 0 965.9 -- 20
2020-07-05 15:00:00 31 15 Norte 26 Norte 0 966.5 -- 23
2020-07-05 14:00:00 29.9 10 Norte 23 Nordeste 0 967.3 -- 24
2020-07-05 13:00:00 28.8 10 Noroeste 22 Noroeste 0 967.8 -- 26
2020-07-05 12:00:00 27.5 9 Norte 21 Noroeste 0 968 -- 29
2020-07-05 11:00:00 26.2 9 Norte 21 Noroeste 0 968.1 -- 30
2020-07-05 10:00:00 25.2 7 Noroeste 15 Noroeste 0 968.4 -- 31
2020-07-05 09:00:00 22.1 8 Sur 15 Sudoeste 0 968.5 -- 34
2020-07-05 08:00:00 19.8 11 Sudoeste 15 Sudoeste 0 968.2 -- 39
2020-07-05 07:00:00 17.7 7 Sudoeste 14 Sudoeste 0 968.1 -- 44
2020-07-05 06:00:00 18 8 Oeste 12 Sudoeste 0 968.2 -- 43
2020-07-05 05:00:00 18.5 8 Sudoeste 11 Sudoeste 0 968 -- 44
2020-07-05 04:00:00 18.6 5 Sudoeste 10 Sudoeste 0 968.3 -- 43
2020-07-05 03:00:00 18.7 6 Oeste 9 Oeste 0 968.6 -- 42
2020-07-05 02:00:00 20.9 5 Sudoeste 18 Sudoeste 0 968.7 -- 33
2020-07-05 01:00:00 22.6 9 Sudoeste 16 Sudoeste 0 968.6 -- 27
2020-07-05 00:00:00 21.7 8 Sudoeste 12 Oeste 0 968.8 -- 28
2020-07-04 23:00:00 22.2 7 Oeste 13 Oeste 0 968.3 -- 25
2020-07-04 22:00:00 24 5 Oeste 15 Noroeste 0 967.4 -- 21
2020-07-04 21:00:00 28.5 11 Norte 22 Norte 0 966.9 -- 13
2020-07-04 20:00:00 30 14 Norte 25 Noroeste 0 966.6 -- 11
2020-07-04 19:00:00 30.7 14 Noroeste 27 Noroeste 0 966.5 -- 10
2020-07-04 18:00:00 30.2 13 Norte 27 Noroeste 0 966.8 -- 12
2020-07-04 17:00:00 29.9 14 Norte 27 Norte 0 967.3 -- 12
2020-07-04 16:00:00 28.9 13 Norte 30 Noroeste 0 967.7 -- 15
2020-07-04 15:00:00 28.2 10 Norte 29 Noroeste 0 968.2 -- 19
2020-07-04 14:00:00 26.6 11 Norte 21 Norte 0 968.7 -- 23
2020-07-04 13:00:00 24.9 10 Norte 21 Norte 0 969.1 -- 27
2020-07-04 12:00:00 23.7 5 Norte 15 Noroeste 0 969.2 -- 32
2020-07-04 11:00:00 21.3 7 Nordeste 17 Norte 0 969.6 -- 38
2020-07-04 10:00:00 20.4 6 Noroeste 22 Oeste 0 969.5 -- 41
2020-07-04 09:00:00 18.2 5 Este 12 Sudoeste 0 969.4 -- 52
2020-07-04 08:00:00 15.9 8 Sudoeste 14 Sudoeste 0 969.2 -- 58
2020-07-04 07:00:00 12.5 4 Oeste 9 Oeste 0 969 -- 73
2020-07-04 06:00:00 13.3 0 Calma 9 Noroeste 0 968.6 -- 68
2020-07-04 05:00:00 15 5 Noroeste 14 Sudoeste 0 968.5 -- 59
2020-07-04 04:00:00 16.2 12 Sudoeste 18 Sudoeste 0 968.6 -- 55
2020-07-04 03:00:00 16.7 10 Sudoeste 16 Sudoeste 0 969 -- 53
2020-07-04 02:00:00 16.3 5 Oeste 10 Sudoeste 0 968.9 -- 55
2020-07-04 01:00:00 18.3 4 Oeste 14 Oeste 0 968.6 -- 49
2020-07-04 00:00:00 18.4 4 Oeste 10 Noroeste 0 968.2 -- 47
2020-07-03 23:00:00 19.4 3 Sudoeste 11 Noroeste 0 967.4 -- 43
2020-07-03 22:00:00 22 6 Noroeste 18 Noroeste 0 966.7 -- 34
2020-07-03 21:00:00 24.1 13 Norte 27 Noroeste 0 966.3 -- 30
2020-07-03 20:00:00 25.7 16 Noroeste 33 Noroeste 0 965.7 -- 26
2020-07-03 19:00:00 26.7 18 Noroeste 32 Norte 0 965.4 -- 25
2020-07-03 18:00:00 27 14 Norte 33 Norte 0 965.3 -- 26
2020-07-03 17:00:00 26.8 18 Norte 33 Norte 0 965.5 -- 27
2020-07-03 16:00:00 26 15 Norte 35 Norte 0 966 -- 29
2020-07-03 15:00:00 25.8 16 Noroeste 31 Noroeste 0 966.4 -- 30
2020-07-03 14:00:00 24.5 15 Noroeste 39 Noroeste 0 966.9 -- 32
2020-07-03 13:00:00 23.4 17 Noroeste 35 Noroeste 0 967.4 -- 33
2020-07-03 12:00:00 22 17 Noroeste 35 Noroeste 0 967.5 -- 36
2020-07-03 11:00:00 21.2 18 Noroeste 31 Oeste 0 967.6 -- 38
2020-07-03 10:00:00 18.9 14 Noroeste 24 Noroeste 0 967.5 -- 46
2020-07-03 09:00:00 18 12 Noroeste 19 Noroeste 0 967.4 -- 52
2020-07-03 08:00:00 17.7 7 Noroeste 19 Noroeste 0 966.9 -- 55
2020-07-03 07:00:00 17.2 13 Noroeste 21 Noroeste 0 966.7 -- 55
2020-07-03 06:00:00 17.4 11 Noroeste 19 Noroeste 0 966.6 -- 54
2020-07-03 05:00:00 17.7 10 Oeste 20 Oeste 0 966.4 -- 56
2020-07-03 04:00:00 16.9 7 Oeste 19 Sudoeste 0 966.3 -- 60
2020-07-03 03:00:00 17.2 9 Oeste 19 Sudoeste 0 966.1 -- 60
2020-07-03 02:00:00 17.9 10 Oeste 21 Oeste 0 965.9 -- 58
2020-07-03 01:00:00 18.7 11 Oeste 29 Oeste 0 965.6 -- 56
2020-07-03 00:00:00 20 13 Oeste 29 Oeste 0 965 -- 51
2020-07-02 23:00:00 21.2 12 Oeste 36 Noroeste 0 964.4 -- 51
2020-07-02 22:00:00 23.1 20 Noroeste 45 Noroeste 0 962.8 -- 46
2020-07-02 21:00:00 26 25 Noroeste 42 Noroeste 0 961.4 -- 38
2020-07-02 20:00:00 29.7 12 Noroeste 26 Noroeste 0 960.4 -- 29
2020-07-02 19:00:00 30.6 10 Noroeste 23 Norte 0 960.3 -- 27
2020-07-02 18:00:00 30.3 14 Noroeste 27 Norte 0 960.2 -- 30
2020-07-02 17:00:00 30.1 12 Norte 23 Norte 0 960.4 -- 32
2020-07-02 16:00:00 29.8 9 Norte 26 Norte 0 961 -- 33
2020-07-02 15:00:00 28.5 11 Norte 28 Norte 0 961.4 -- 36
2020-07-02 14:00:00 28.2 11 Norte 22 Noroeste 0 962 -- 37
2020-07-02 13:00:00 27.7 8 Norte 21 Este 0 962.2 -- 39
2020-07-02 12:00:00 26.3 8 Norte 17 Norte 0 962.5 -- 43
2020-07-02 11:00:00 25.8 4 Noroeste 13 Noroeste 0 962.6 -- 44
2020-07-02 10:00:00 23.7 6 Norte 12 Norte 0 962.7 -- 54
2020-07-02 09:00:00 22.1 4 Sudoeste 12 Sudoeste 0 962.5 -- 62
2020-07-02 08:00:00 20.3 9 Sudoeste 14 Sudoeste 0 962 -- 71
2020-07-02 07:00:00 18 3 Sudoeste 8 Sudoeste 0 961.9 -- 82
2020-07-02 06:00:00 18.6 5 Sudoeste 7 Oeste 0 961.8 -- 78
2020-07-02 05:00:00 19.6 3 Nordeste 10 Norte 0 961.4 -- 69
2020-07-02 04:00:00 21.2 5 Norte 9 Norte 0 961.2 -- 62
2020-07-02 03:00:00 21.7 4 Noroeste 10 Noroeste 0 961 -- 61
2020-07-02 02:00:00 23 5 Norte 11 Noroeste 0 961.1 -- 59
2020-07-02 01:00:00 24.2 4 Noroeste 8 Noroeste 0 960.9 -- 56
2020-07-02 00:00:00 25.2 3 Oeste 13 Noroeste 0 960.6 -- 52
2020-07-01 23:00:00 26.8 5 Oeste 22 Noroeste 0 959.9 -- 44
2020-07-01 22:00:00 28.5 12 Noroeste 37 Noroeste 0 958.6 -- 42
2020-07-01 21:00:00 31.9 5 Sur 18 Sudeste 0 957.5 -- 30
2020-07-01 20:00:00 33.4 9 Sudeste 18 Sur 0 957 -- 29
2020-07-01 19:00:00 35.3 5 Sudeste 17 Norte 0 956.9 -- 22
2020-07-01 18:00:00 35.1 12 Norte 24 Nordeste 0 957.2 -- 21
2020-07-01 17:00:00 34.3 12 Norte 21 Norte 0 957.8 -- 27
2020-07-01 16:00:00 33.4 6 Nordeste 25 Norte 0 958 -- 28
2020-07-01 15:00:00 33.3 8 Nordeste 22 Norte 0 958.1 -- 31
2020-07-01 14:00:00 31.7 9 Norte 22 Norte 0 958.4 -- 35
2020-07-01 13:00:00 29.9 7 Norte 20 Norte 0 958.8 -- 45
2020-07-01 12:00:00 27.8 8 Norte 19 Norte 0 959 -- 56
2020-07-01 11:00:00 27.7 3 Nordeste 9 Sudeste 0 958.9 -- 55
2020-07-01 10:00:00 25.2 4 Este 12 Este 0 959.1 -- 64
2020-07-01 09:00:00 22.5 3 Este 7 Nordeste 0 958.9 -- 79
2020-07-01 08:00:00 21 0 Calma 6 Sur 0 958.6 -- 85
2020-07-01 07:00:00 18 0 Calma 4 Noroeste 0 958.3 -- 92
2020-07-01 06:00:00 18.7 0 Calma 6 Oeste 0 957.9 -- 93
2020-07-01 05:00:00 19.5 0 Calma 5 Noroeste 0 957.9 -- 91
2020-07-01 04:00:00 20 5 Sudoeste 8 Sudoeste 0 958.1 -- 90
2020-07-01 03:00:00 21 3 Sur 10 Norte 0 958.6 -- 87
2020-07-01 02:00:00 22.1 6 Noroeste 10 Noroeste 0 958.7 -- 84
2020-07-01 01:00:00 22.6 2 Noroeste 7 Norte 0 959.2 -- 81
2020-07-01 00:00:00 23.3 5 Sudoeste 24 Noroeste 0 959 -- 81
2020-06-30 23:00:00 25.8 13 Noroeste 26 Sur 0 958.7 -- 64
2020-06-30 22:00:00 27.9 5 Sudeste 19 Sudoeste 0 957.2 -- 38
2020-06-30 21:00:00 29.7 10 Sudeste 23 Sudeste 0 957.3 -- 34
2020-06-30 20:00:00 30.6 14 Sudeste 30 Sudeste 0 957.2 -- 34
2020-06-30 19:00:00 32.7 16 Sudeste 29 Sudeste 0 957.2 -- 30
2020-06-30 18:00:00 33.4 17 Sudeste 29 Sudeste 0 957.8 -- 28
2020-06-30 17:00:00 33.8 9 Nordeste 24 Nordeste 0 958.3 -- 34
2020-06-30 16:00:00 32.4 12 Norte 23 Norte 0 959.2 -- 35
2020-06-30 15:00:00 31.2 9 Norte 21 Norte 0 960 -- 35
2020-06-30 14:00:00 29.1 10 Norte 20 Norte 0 960.9 -- 38
2020-06-30 13:00:00 27.6 9 Nordeste 18 Nordeste 0 961.5 -- 40
2020-06-30 12:00:00 25.8 6 Nordeste 15 Norte 0 962 -- 46
2020-06-30 11:00:00 24.3 5 Nordeste 14 Norte 0 962.4 -- 51
2020-06-30 10:00:00 22.9 4 Nordeste 9 Norte 0 962.8 -- 53
2020-06-30 09:00:00 21.1 4 Nordeste 8 Este 0 962.9 -- 59
2020-06-30 08:00:00 20.3 3 Este 7 Este 0 962.6 -- 67
2020-06-30 07:00:00 18.7 5 Este 8 Este 0 962.5 -- 76
2020-06-30 06:00:00 17.9 0 Calma 4 Sudeste 0 962.4 -- 81
2020-06-30 05:00:00 18.8 0 Calma 3 Sudoeste 0 962.4 -- 75
2020-06-30 04:00:00 20.1 3 Este 6 Este 0 962.7 -- 66
2020-06-30 03:00:00 20.6 4 Este 8 Este 0 963.1 -- 64
2020-06-30 02:00:00 21.6 3 Norte 6 Norte 0 963.2 -- 59
2020-06-30 01:00:00 23 4 Oeste 18 Noroeste 0 963.6 -- 54
2020-06-30 00:00:00 24.4 10 Noroeste 37 Norte 0 963.3 -- 50
2020-06-29 23:00:00 27 11 Noroeste 21 Oeste 0 962.4 -- 55
2020-06-29 22:00:00 28 8 Sudeste 22 Sur 0 961.2 -- 53
2020-06-29 21:00:00 30.2 13 Sudeste 22 Sudeste 0 960.9 -- 46
2020-06-29 20:00:00 32.3 5 Nordeste 17 Norte 0 960.8 -- 30
2020-06-29 19:00:00 32.4 8 Noroeste 18 Norte 0 961 -- 29
2020-06-29 18:00:00 32.3 8 Norte 18 Este 0 961.4 -- 30
2020-06-29 17:00:00 33.2 7 Nordeste 17 Nordeste 0 961.9 -- 29
2020-06-29 16:00:00 32.4 5 Nordeste 19 Norte 0 962.4 -- 31
2020-06-29 15:00:00 30.4 6 Norte 19 Norte 0 963.1 -- 33
2020-06-29 14:00:00 29 8 Norte 19 Norte 0 963.8 -- 36
2020-06-29 13:00:00 28 9 Nordeste 21 Norte 0 964.3 -- 39
2020-06-29 12:00:00 27.1 5 Noroeste 18 Noroeste 0 964.5 -- 41
2020-06-29 11:00:00 25.6 9 Norte 16 Norte 0 964.8 -- 45
2020-06-29 10:00:00 24.4 8 Norte 17 Oeste 0 964.9 -- 47
2020-06-29 09:00:00 23.4 6 Noroeste 16 Sudoeste 0 965 -- 51
2020-06-29 08:00:00 21.2 10 Sudoeste 15 Sudoeste 0 964.8 -- 60
2020-06-29 07:00:00 20.3 9 Sudoeste 14 Sudoeste 0 964.4 -- 63
2020-06-29 06:00:00 20 8 Oeste 13 Sudoeste 0 964.1 -- 65
2020-06-29 05:00:00 20.7 7 Oeste 11 Oeste 0 964.1 -- 64
2020-06-29 04:00:00 21.3 5 Oeste 9 Oeste 0 964 -- 66
2020-06-29 03:00:00 22.6 3 Noroeste 12 Noroeste 0 963.9 -- 69
2020-06-29 02:00:00 24.5 7 Oeste 25 Noroeste 0 963.7 -- 57
2020-06-29 01:00:00 25.4 8 Sur 19 Sur 0 963.3 -- 56
2020-06-29 00:00:00 25.9 10 Sudoeste 24 Sur 0 963 -- 55
2020-06-28 23:00:00 26.6 13 Sur 30 Sur 0 962.6 -- 53
2020-06-28 22:00:00 27.4 11 Sur 23 Sudeste 0 962.4 -- 51
2020-06-28 21:00:00 29.1 14 Sudeste 22 Sudeste 0 962.1 -- 48
2020-06-28 20:00:00 30.4 13 Sudeste 28 Sur 0 962.1 -- 41
2020-06-28 19:00:00 30.8 16 Sudeste 27 Sudeste 0 962.1 -- 41
2020-06-28 18:00:00 32.9 4 Nordeste 22 Norte 0 962.4 -- 27
2020-06-28 17:00:00 32.6 8 Norte 27 Norte 0 962.7 -- 27
2020-06-28 16:00:00 32 9 Norte 20 Norte 0 963.1 -1.5 29
2020-06-28 15:00:00 32.2 6 Nordeste 19 Norte 0 963.5 -- 29
2020-06-28 14:00:00 29.8 8 Norte 20 Nordeste 0 964.1 -- 36
2020-06-28 13:00:00 28.6 9 Nordeste 18 Nordeste 0 964.6 -- 42
2020-06-28 12:00:00 27.9 8 Norte 17 Norte 0 964.9 -- 45
2020-06-28 11:00:00 26.6 5 Norte 13 Nordeste 0 964.8 -- 49
2020-06-28 10:00:00 25.2 5 Este 10 Este 0 964.8 -- 51
2020-06-28 09:00:00 24.1 3 Sur 7 Este 0 964.5 -- 53
2020-06-28 08:00:00 22 5 Sudoeste 9 Sur 0 964.3 -- 57
2020-06-28 07:00:00 20.3 5 Oeste 17 Sudoeste 0 963.9 -- 61
2020-06-28 06:00:00 20.8 10 Sudoeste 17 Sudoeste 0 963.5 -- 59
2020-06-28 05:00:00 21.8 10 Oeste 22 Sur 0 963.3 -- 56
2020-06-28 04:00:00 23.6 12 Sur 26 Sudoeste 0 962.9 -- 49
2020-06-28 03:00:00 24.1 13 Sur 27 Sur 0 963 -- 49
2020-06-28 02:00:00 24.2 11 Sur 21 Sur 0 963 -- 51
2020-06-28 01:00:00 25.1 12 Sur 24 Sur 0 962.9 -- 48
2020-06-28 00:00:00 25.5 9 Sur 19 Sur 0 962.8 -- 50
2020-06-27 23:00:00 26.4 7 Sur 16 Sur 0 962.6 -- 47
2020-06-27 22:00:00 27.6 9 Sur 14 Sur 0 961.9 -- 42
2020-06-27 21:00:00 29.7 3 Nordeste 11 Este 0 961.5 -- 25
2020-06-27 20:00:00 31.5 3 Este 14 Norte 0 961.5 -- 23
2020-06-27 19:00:00 31.2 8 Norte 15 Noroeste 0 961.4 -- 23
2020-06-27 18:00:00 31.6 10 Norte 21 Norte 0 961.7 -- 23
2020-06-27 17:00:00 31.6 9 Nordeste 22 Norte 0 961.8 -- 24
2020-06-27 16:00:00 30.5 6 Noroeste 24 Noroeste 0 962.1 -- 25
2020-06-27 15:00:00 29.5 10 Norte 29 Norte 0 962.4 -- 27
2020-06-27 14:00:00 28.6 12 Norte 23 Noroeste 0 962.8 -- 30
2020-06-27 13:00:00 27.4 11 Norte 24 Norte 0 963 -- 39
2020-06-27 12:00:00 26.1 8 Norte 18 Nordeste 0 962.9 -- 42
2020-06-27 11:00:00 24.6 10 Norte 21 Norte 0 962.7 -- 47
2020-06-27 10:00:00 25.3 12 Noroeste 20 Noroeste 0 962.5 -- 33
2020-06-27 09:00:00 22.8 6 Sudoeste 11 Sudoeste 0 962.3 -- 45
2020-06-27 08:00:00 20.1 4 Sur 9 Sudoeste 0 962.1 -- 56
2020-06-27 07:00:00 16.8 0 Calma 4 Noroeste 0 961.8 -- 79
2020-06-27 06:00:00 17.5 3 Sur 9 Sur 0 961.2 -- 72
2020-06-27 05:00:00 19.3 4 Norte 18 Sur 0 960.9 -- 59
2020-06-27 04:00:00 21.5 9 Sudoeste 29 Sudoeste 0 960.3 -- 42
2020-06-27 03:00:00 22.5 17 Sur 32 Sur 0 960.3 -- 40
2020-06-27 02:00:00 22 7 Sur 20 Sur 0 960.4 -- 43
2020-06-27 01:00:00 19.8 6 Oeste 10 Oeste 0 960.5 -- 68
2020-06-27 00:00:00 20.1 3 Sur 24 Noroeste 0 960.8 -- 68
2020-06-26 23:00:00 21.3 14 Noroeste 41 Sudeste 0 960.8 -- 60
2020-06-26 22:00:00 22.4 14 Sudeste 29 Sudeste 0 959.7 -- 49
2020-06-26 21:00:00 22.8 5 Sudeste 27 Sudoeste 0 959.6 -- 59
2020-06-26 20:00:00 25.8 12 Oeste 52 Sudeste 0 959.7 -- 38
2020-06-26 19:00:00 28.3 31 Sudeste 54 Sudeste 0 957.3 -- 26
2020-06-26 18:00:00 29.5 31 Sudeste 54 Sudeste 0 957.4 -- 24
2020-06-26 17:00:00 32.4 27 Sudeste 44 Sur 0 958 -- 17
2020-06-26 16:00:00 32.5 24 Sudeste 40 Sudeste 0 958.6 -- 16
2020-06-26 15:00:00 32.3 19 Sudeste 37 Sudeste 0 959.5 -- 17
2020-06-26 14:00:00 31.8 17 Sudeste 34 Sudeste 0 960.3 -- 17
2020-06-26 13:00:00 31.3 15 Sudeste 31 Sur 0 960.7 -- 17
2020-06-26 12:00:00 29.7 14 Sudeste 30 Este 0 961 -- 20
2020-06-26 11:00:00 28.7 13 Sudeste 26 Sudeste 0 961.1 -- 23
2020-06-26 10:00:00 25.6 13 Sudeste 20 Sudeste 0 961.5 -- 29
2020-06-26 09:00:00 22.6 8 Este 13 Este 0 961.7 -- 40
2020-06-26 08:00:00 20.6 5 Sur 13 Sur 0 961.9 -- 43
2020-06-26 07:00:00 19.4 11 Sur 15 Sur 0 961.9 -- 44
2020-06-26 06:00:00 19.7 7 Sur 11 Sudeste 0 962.3 -- 43
2020-06-26 05:00:00 20.2 7 Sudeste 13 Sur 0 962.6 -- 41
2020-06-26 04:00:00 19.5 5 Sur 10 Sur 0 962.8 -- 67
2020-06-26 03:00:00 19.9 5 Sur 19 Oeste 0 963.1 -- 71
2020-06-26 02:00:00 20.7 10 Oeste 19 Sudoeste 0 963.8 -- 67
2020-06-26 01:00:00 21.4 5 Sudoeste 18 Norte 0 963.6 -- 45
2020-06-26 00:00:00 24.2 12 Norte 30 Sudeste 0 962.9 -- 32
2020-06-25 23:00:00 25.4 16 Sudeste 32 Sudeste 0 962.1 -- 28
2020-06-25 22:00:00 25.7 16 Sudeste 31 Sudeste 0 961.8 -- 33
2020-06-25 21:00:00 27.2 7 Sudoeste 49 Sudeste 0 961.2 -- 35
2020-06-25 20:00:00 27.7 35 Sudeste 50 Sudeste 0 959.9 -- 37
2020-06-25 19:00:00 29.1 31 Sudeste 46 Sudeste 0 959.5 -- 32
2020-06-25 18:00:00 31.1 27 Sudeste 46 Sudeste 0 958.9 -- 29
2020-06-25 17:00:00 33.1 21 Sudeste 38 Sudeste 0 959.9 -- 25
2020-06-25 16:00:00 33.7 11 Nordeste 26 Nordeste 0 960.3 -- 31
2020-06-25 15:00:00 33.2 10 Nordeste 29 Nordeste 0 961 -- 30
2020-06-25 14:00:00 31.8 8 Nordeste 23 Norte 0 961.8 -- 34
2020-06-25 13:00:00 29.8 6 Nordeste 16 Este 0 962.6 -- 36
2020-06-25 12:00:00 28.5 4 Nordeste 12 Norte 0 963 -- 35
2020-06-25 11:00:00 26.4 4 Nordeste 10 Sudeste 0 963.1 -- 38
2020-06-25 10:00:00 24.9 3 Sur 12 Sur 0 963.3 -- 44
2020-06-25 09:00:00 21.3 10 Sudoeste 14 Sudoeste 0 963.6 -- 52
2020-06-25 08:00:00 19.5 8 Sudoeste 12 Sudoeste 0 963.4 -- 60
2020-06-25 07:00:00 17.3 4 Oeste 8 Sudoeste 0 963.5 -- 77
2020-06-25 06:00:00 18.5 5 Noroeste 23 Sudoeste 0 963.4 -- 67
2020-06-25 05:00:00 19.9 15 Sudoeste 28 Sudoeste 0 962.9 -- 59
2020-06-25 04:00:00 21.7 17 Sur 38 Sur 0 963.1 -- 55
2020-06-25 03:00:00 21.3 16 Sur 30 Sur 0 963.4 -- 57
2020-06-25 02:00:00 21.6 9 Sur 24 Sur 0 963.9 -- 54
2020-06-25 01:00:00 22.1 9 Sudoeste 17 Sudoeste 0 964.4 -- 50
2020-06-25 00:00:00 21 9 Sudoeste 15 Sur 0 964.7 -- 58
2020-06-24 23:00:00 21.6 5 Sur 15 Norte 0 964.5 -- 58
2020-06-24 22:00:00 23.9 12 Norte 31 Norte 0 964.6 -- 45
2020-06-24 21:00:00 24.5 7 Sudeste 31 Sur 0 963.1 -- 40
2020-06-24 20:00:00 25.9 9 Sur 37 Sudoeste 0 961 -- 33
2020-06-24 19:00:00 24.1 24 Oeste 57 Sudoeste 0 963.3 -- 41
2020-06-24 18:00:00 22.2 33 Sudoeste 73 Sudoeste 0 964.5 -- 57
2020-06-24 17:00:00 24.3 36 Sudoeste 64 Sudoeste 0 964.2 -- 44
2020-06-24 16:00:00 27.7 15 Sur 28 Sur 0 963.3 -- 38
2020-06-24 15:00:00 30.7 5 Este 21 Norte 0 962.7 -- 37
2020-06-24 14:00:00 31.2 12 Norte 25 Norte 0 962.7 -- 34
2020-06-24 13:00:00 30 8 Norte 19 Nordeste 0 962.9 -- 39
2020-06-24 12:00:00 29.2 8 Norte 17 Nordeste 0 962.8 -- 41
2020-06-24 11:00:00 29.1 6 Nordeste 14 Este 0 962.8 -- 40
2020-06-24 10:00:00 26.2 8 Sudeste 18 Sudeste 0 963.1 -- 44
2020-06-24 09:00:00 22.2 3 Este 11 Norte 0 963.9 -- 69
2020-06-24 08:00:00 20.6 5 Noroeste 11 Noroeste 0 963.9 -- 76
2020-06-24 07:00:00 18.3 4 Noroeste 6 Nordeste 0 962.8 -- 84
2020-06-24 06:00:00 18.3 4 Sudoeste 7 Sur 0 963 -- 86
2020-06-24 05:00:00 19.3 3 Noroeste 14 Noroeste 0 963 -- 82
2020-06-24 04:00:00 20.7 7 Noroeste 17 Noroeste 0 963.3 -- 72
2020-06-24 03:00:00 22.8 6 Sur 21 Sur 0 963 -- 55
2020-06-24 02:00:00 23.9 10 Sudoeste 20 Sur 0 963 -- 52
2020-06-24 01:00:00 24.1 12 Sur 18 Sur 0 963.2 -- 53
2020-06-24 00:00:00 25 11 Sur 19 Sur 0 963 -- 50
2020-06-23 23:00:00 25.2 8 Sur 17 Sur 0 962.8 -- 50
2020-06-23 22:00:00 26.1 6 Sudeste 21 Sudeste 0 962.1 -- 47
2020-06-23 21:00:00 26.9 13 Sur 28 Sur 0 961.8 -- 45
2020-06-23 20:00:00 28 16 Sur 34 Sudeste 0 961.8 -- 42
2020-06-23 19:00:00 30.4 12 Sur 23 Sur 0 961.3 -- 35
2020-06-23 18:00:00 33.2 11 Norte 25 Norte 0 961.6 -- 29
2020-06-23 17:00:00 33.6 10 Nordeste 24 Norte 0 961.9 -- 28
2020-06-23 16:00:00 32.9 9 Nordeste 21 Nordeste 0 962.5 -- 29
2020-06-23 15:00:00 31.7 6 Nordeste 33 Nordeste 0 963 -- 32
2020-06-23 14:00:00 29.8 10 Norte 20 Nordeste 0 964 -- 33
2020-06-23 13:00:00 28.7 6 Norte 17 Nordeste 0 964.6 -- 35
2020-06-23 12:00:00 27.8 4 Este 20 Norte 0 964.9 -- 38
2020-06-23 11:00:00 26.3 4 Norte 13 Este 0 965.2 -- 40
2020-06-23 10:00:00 25.8 5 Este 10 Este 0 965.6 -- 42
2020-06-23 09:00:00 22 4 Sur 13 Sudoeste 0 965.8 -- 53
2020-06-23 08:00:00 19.6 10 Sudoeste 15 Sudoeste 0 965.7 -- 58
2020-06-23 07:00:00 17.3 8 Sudoeste 12 Sudoeste 0 965.6 -- 64
2020-06-23 06:00:00 17.9 6 Sudoeste 13 Sudoeste 0 965.5 -- 66
2020-06-23 05:00:00 18.6 6 Sudoeste 13 Sudoeste 0 965.6 -- 60
2020-06-23 04:00:00 19.4 5 Oeste 15 Sudoeste 0 965.7 -- 63
2020-06-23 03:00:00 20.4 10 Sudoeste 19 Sudoeste 0 965.8 -- 55
2020-06-23 02:00:00 21.2 13 Sudoeste 18 Sudoeste 0 965.9 -- 49
2020-06-23 01:00:00 21.8 13 Sudoeste 20 Sudoeste 0 966.1 -- 41
2020-06-23 00:00:00 22.5 10 Sudoeste 16 Sudoeste 0 966.1 -- 40
2020-06-22 23:00:00 22.4 4 Oeste 10 Oeste 0 965.7 -- 38
2020-06-22 22:00:00 24.5 6 Oeste 9 Oeste 0 965 -- 34
2020-06-22 21:00:00 29.6 4 Norte 14 Nordeste 0 964.8 -- 20
2020-06-22 20:00:00 30.6 8 Norte 17 Norte 0 964.8 -- 19
2020-06-22 19:00:00 30.8 13 Norte 26 Norte 0 965 -- 19
2020-06-22 18:00:00 30.8 13 Norte 25 Norte 0 965.4 -- 22
2020-06-22 17:00:00 30.8 12 Norte 24 Norte 0 966.1 -- 24
2020-06-22 16:00:00 29.8 9 Norte 25 Nordeste 0 967 -- 25
2020-06-22 15:00:00 29.2 8 Nordeste 23 Norte 0 967.9 -- 30
2020-06-22 14:00:00 27.6 10 Norte 26 Norte 0 968.6 -- 33
2020-06-22 13:00:00 26.9 14 Norte 26 Norte 0 969 -- 34
2020-06-22 12:00:00 25.8 11 Norte 23 Norte 0 969.2 -- 37
2020-06-22 11:00:00 24.5 8 Noroeste 24 Norte 0 969.7 -- 40
2020-06-22 10:00:00 23 7 Noroeste 17 Norte 0 970.2 -- 41
2020-06-22 09:00:00 22.1 9 Oeste 22 Sudoeste 0 970.2 -- 44
2020-06-22 08:00:00 20.5 12 Sudoeste 20 Sudoeste 0 970.3 -- 47
2020-06-22 07:00:00 19.1 10 Oeste 24 Oeste 0 970 -- 51
2020-06-22 06:00:00 19 10 Sudoeste 19 Sudoeste 0 970 -- 50
2020-06-22 05:00:00 19.4 7 Sudoeste 24 Sudoeste 0 970 -- 48
2020-06-22 04:00:00 19.5 9 Oeste 23 Oeste 0 970.1 -- 46
2020-06-22 03:00:00 20.3 13 Oeste 28 Sudoeste 0 970.1 -- 44
2020-06-22 02:00:00 21.1 16 Oeste 32 Oeste 0 970 -- 43
2020-06-22 01:00:00 22.7 17 Oeste 28 Oeste 0 970.1 -- 38
2020-06-22 00:00:00 23.5 17 Oeste 27 Oeste 0 969.9 -- 34
2020-06-21 23:00:00 25.2 15 Noroeste 28 Noroeste 0 969.3 -- 30
2020-06-21 22:00:00 26.6 12 Noroeste 25 Noroeste 0 968 -- 27
2020-06-21 21:00:00 29.1 15 Noroeste 30 Noroeste 0 967.5 -- 21
2020-06-21 20:00:00 31.1 15 Noroeste 29 Norte 0 966.9 -- 19
2020-06-21 19:00:00 31.9 12 Norte 28 Noroeste 0 966.8 -- 17
2020-06-21 18:00:00 31.5 17 Noroeste 33 Norte 0 967 -- 18
2020-06-21 17:00:00 31.6 19 Norte 33 Norte 0 967.4 -- 18
2020-06-21 16:00:00 31.5 16 Noroeste 30 Norte 0 967.7 -- 21
2020-06-21 15:00:00 30.9 5 Norte 24 Norte 0 968 -- 22
2020-06-21 14:00:00 30.4 6 Este 16 Este 0 968.5 -- 24
2020-06-21 13:00:00 27.6 8 Norte 21 Norte 0 969 -- 25
2020-06-21 12:00:00 26.9 8 Noroeste 21 Norte 0 969.4 -- 28
2020-06-21 11:00:00 25.5 9 Noroeste 18 Noroeste 0 969.4 -- 30
2020-06-21 10:00:00 24.2 8 Norte 15 Norte 0 969.4 -- 36
2020-06-21 09:00:00 22.4 8 Sudoeste 12 Sudoeste 0 969 -- 54
2020-06-21 08:00:00 20.8 2 Oeste 17 Sudoeste 0 968.7 -- 67
2020-06-21 07:00:00 19.2 11 Sudoeste 18 Sudoeste 0 968.1 -- 71
2020-06-21 06:00:00 18.2 3 Sur 10 Sudoeste 0 967.8 -- 79
2020-06-21 05:00:00 17.9 5 Noroeste 8 Oeste 0 967.8 -- 77
2020-06-21 04:00:00 19.9 3 Oeste 17 Sudoeste 0 967.5 -- 68
2020-06-21 03:00:00 21.4 11 Sudoeste 18 Sudoeste 0 967.3 -- 62
2020-06-21 02:00:00 21.7 6 Sudoeste 17 Sudoeste 0 967.4 -- 59
2020-06-21 01:00:00 23.7 11 Sudoeste 17 Sudoeste 0 967.3 -- 50
2020-06-21 00:00:00 23.7 3 Sur 15 Sudoeste 0 967.2 -- 46
2020-06-20 23:00:00 24.2 8 Sudoeste 11 Sur 0 966.9 -- 46
2020-06-20 22:00:00 24.8 3 Sur 6 Este 0 966.2 -- 48
2020-06-20 21:00:00 27.7 4 Este 11 Nordeste 0 965.8 -- 34
2020-06-20 20:00:00 29.1 7 Este 15 Nordeste 0 965.6 -- 32
2020-06-20 19:00:00 29.4 7 Nordeste 19 Norte 0 965.5 -- 32
2020-06-20 18:00:00 29.3 8 Nordeste 18 Norte 0 965.8 -- 33
2020-06-20 17:00:00 29.3 11 Norte 21 Nordeste 0 966.2 -- 31
2020-06-20 16:00:00 28.5 8 Norte 19 Norte 0 966.7 -- 33
2020-06-20 15:00:00 27.5 7 Nordeste 25 Norte 0 967.1 -- 40
2020-06-20 14:00:00 26.8 5 Nordeste 17 Norte 0 967.5 -- 44
2020-06-20 13:00:00 25 6 Norte 14 Norte 0 968 -- 47
2020-06-20 12:00:00 23.5 5 Este 16 Norte 0 968.3 -- 57
2020-06-20 11:00:00 21.7 6 Norte 18 Norte 0 968.5 -- 63
2020-06-20 10:00:00 20 7 Norte 16 Norte 0 968.2 -- 72
2020-06-20 09:00:00 19.2 5 Sudoeste 10 Oeste 0 967.9 -- 79
2020-06-20 08:00:00 18 4 Sur 17 Oeste 0 967.5 -- 87
2020-06-20 07:00:00 17.1 6 Oeste 18 Oeste 0 967.4 -- 96
2020-06-20 06:00:00 16.7 9 Noroeste 18 Noroeste 0 967.1 -- 97
2020-06-20 05:00:00 17.1 4 Oeste 14 Noroeste 0 966.8 -- 89
2020-06-20 04:00:00 18.3 9 Oeste 17 Noroeste 0 966.3 -- 82
2020-06-20 03:00:00 19.6 12 Sudoeste 23 Sur 0 966 -- 74
2020-06-20 02:00:00 19.7 10 Sur 17 Sudoeste 0 966.2 -- 75
2020-06-20 01:00:00 19.8 8 Sur 22 Sur 0 966.3 -- 76
2020-06-20 00:00:00 20.1 6 Sur 22 Sur 0 965.9 -- 73
2020-06-19 23:00:00 20.5 9 Sur 23 Sudeste 0 965.6 -- 68
2020-06-19 22:00:00 21.8 17 Sur 31 Sudeste 0 964.8 -- 60
2020-06-19 21:00:00 23.4 17 Sudeste 28 Sudeste 0 964.3 -- 53
2020-06-19 20:00:00 24.9 18 Sudeste 27 Sudeste 0 963.7 -- 48
2020-06-19 19:00:00 25.8 10 Sudeste 22 Sudeste 0 963.5 -- 44
2020-06-19 18:00:00 26 15 Sudeste 26 Sudeste 0 963.7 -- 46
2020-06-19 17:00:00 25.3 15 Sudeste 27 Sudeste 0 964.1 -- 50
2020-06-19 16:00:00 25.4 3 Nordeste 16 Nordeste 0 964.3 -- 45
2020-06-19 15:00:00 26.2 6 Noroeste 19 Nordeste 0 964.1 -- 45
2020-06-19 14:00:00 23.7 12 Norte 22 Norte 0 964.4 -- 52
2020-06-19 13:00:00 23.1 8 Norte 17 Norte 0 964.8 -- 55
2020-06-19 12:00:00 21.3 7 Norte 16 Norte 0 965 -- 58
2020-06-19 11:00:00 19.6 8 Norte 14 Noroeste 0 964.9 -- 61
2020-06-19 10:00:00 18.3 4 Nordeste 12 Norte 0 964.8 -- 68
2020-06-19 09:00:00 17 3 Noroeste 6 Oeste 0 964.7 -- 78
2020-06-19 08:00:00 15.9 5 Noroeste 12 Noroeste 0 964.6 -- 94
2020-06-19 07:00:00 15.8 6 Oeste 14 Oeste 0 964.1 -- 89
2020-06-19 06:00:00 16.3 6 Oeste 11 Oeste 0 963.6 -- 86
2020-06-19 05:00:00 16.2 7 Oeste 14 Sudoeste 0 963.4 -- 88
2020-06-19 04:00:00 16.5 9 Sudoeste 14 Sudoeste 0 963.1 -- 87
2020-06-19 03:00:00 17.4 5 Sudoeste 17 Sur 0 962.9 -- 82
2020-06-19 02:00:00 17.5 6 Sur 17 Sudoeste 0 963.2 -- 82
2020-06-19 01:00:00 18 4 Sur 13 Sudeste 0 963.1 -- 79
2020-06-19 00:00:00 18.5 5 Sudoeste 15 Sur 0 962.9 -- 76
2020-06-18 23:00:00 19.3 5 Sur 20 Sur 0 962.6 -- 70
2020-06-18 22:00:00 19.6 9 Sur 18 Sur 0 961.9 -- 66
2020-06-18 21:00:00 21.1 8 Sudeste 16 Sur 0 961.2 -- 60
2020-06-18 20:00:00 22.3 9 Sudeste 19 Sudeste 0 960.5 -- 55
2020-06-18 19:00:00 22.8 9 Este 15 Norte 0 960.3 -- 52
2020-06-18 18:00:00 22.6 6 Nordeste 21 Norte 0 960.5 -- 52
2020-06-18 17:00:00 24.4 5 Nordeste 22 Norte 0 960.8 -- 45
2020-06-18 16:00:00 22 6 Nordeste 23 Norte 0 961.2 -- 53
2020-06-18 15:00:00 22.3 8 Nordeste 22 Nordeste 0 961.1 -- 59
2020-06-18 14:00:00 21.7 6 Norte 22 Norte 0 961.6 -- 58
2020-06-18 13:00:00 20.6 9 Norte 19 Nordeste 0 961.8 -- 61
2020-06-18 12:00:00 20.9 4 Sudeste 12 Nordeste 0 962 -- 58
2020-06-18 11:00:00 18.6 4 Sur 10 Sur 0 962.1 -- 67
2020-06-18 10:00:00 15.9 5 Sur 11 Sur 0 962.3 -- 80
2020-06-18 09:00:00 15.2 6 Sudeste 9 Sudeste 0 962.3 -- 82
2020-06-18 08:00:00 13.8 3 Nordeste 15 Noroeste 0 962.3 -- 89
2020-06-18 07:00:00 13.9 4 Norte 12 Noroeste 0 962.1 -- 88
2020-06-18 06:00:00 13.5 3 Este 8 Norte 0.6 961 -- 91
2020-06-18 05:00:00 14.2 3 Este 10 Noroeste 1 961.2 -- 90
2020-06-18 04:00:00 15 9 Noroeste 17 Oeste 2.8 961.6 -- 88
2020-06-18 03:00:00 17.1 7 Sudoeste 13 Sur 0 961.7 -- 67
2020-06-18 02:00:00 17.5 7 Sudoeste 23 Sur 0 961.9 -- 62
2020-06-18 01:00:00 17.9 13 Sur 26 Sur 0 962.5 -- 59
2020-06-18 00:00:00 18.4 12 Sur 28 Sur 0 962.5 -- 57
2020-06-17 23:00:00 18.7 11 Sur 24 Sur 0 962.4 -- 57
2020-06-17 22:00:00 19.6 10 Sur 19 Sur 0 961.6 -- 47
2020-06-17 21:00:00 20.8 5 Sudeste 15 Este 0 961.3 -- 40
2020-06-17 20:00:00 23.3 5 Este 15 Este 0 961.1 -- 34
2020-06-17 19:00:00 22.4 6 Norte 17 Norte 0 961.1 -- 34
2020-06-17 18:00:00 21.5 8 Nordeste 23 Noroeste 0 961.4 -- 37
2020-06-17 17:00:00 21.1 10 Norte 23 Norte 0 961.8 -- 39
2020-06-17 16:00:00 20.7 9 Norte 26 Norte 0 962.1 -- 41
2020-06-17 15:00:00 20.9 13 Norte 26 Noroeste 0 962.6 -- 42
2020-06-17 14:00:00 19.5 12 Norte 24 Norte 0 963.1 -- 45
2020-06-17 13:00:00 19.8 12 Noroeste 26 Norte 0 963.6 -- 43
2020-06-17 12:00:00 18.8 15 Noroeste 28 Norte 0 963.7 -- 46
2020-06-17 11:00:00 17.4 12 Noroeste 25 Noroeste 0 964 -- 53
2020-06-17 10:00:00 16.4 11 Noroeste 21 Noroeste 0 964.1 -- 58
2020-06-17 09:00:00 14.9 9 Sudoeste 19 Oeste 0 964.1 -- 74
2020-06-17 08:00:00 13.9 10 Sudoeste 17 Sudoeste 0 964.1 -- 77
2020-06-17 07:00:00 12.9 7 Oeste 13 Sudoeste 0 963.8 -- 84
2020-06-17 06:00:00 12.6 6 Oeste 20 Sudoeste 0 963.5 -- 86
2020-06-17 05:00:00 14 9 Oeste 15 Oeste 0 963.5 -- 80
2020-06-17 04:00:00 14.5 10 Oeste 18 Oeste 0 963.9 -- 78
2020-06-17 03:00:00 14.7 9 Oeste 16 Oeste 0 964.3 -- 78
2020-06-17 02:00:00 14.9 7 Sudoeste 15 Oeste 0 964.5 -- 81
2020-06-17 01:00:00 15 8 Sudoeste 14 Sudoeste 0 964.9 -- 80
2020-06-17 00:00:00 14.9 6 Sudeste 10 Sudeste 0 964.8 -- 85
2020-06-16 23:00:00 16.2 4 Noroeste 23 Noroeste 0 964.8 -- 78
2020-06-16 22:00:00 16.5 12 Noroeste 32 Noroeste 2 963.6 -- 81
2020-06-16 21:00:00 20.1 11 Norte 20 Norte 0 962.4 -- 57
2020-06-16 20:00:00 22.5 8 Norte 16 Norte 0 961.3 -- 46
2020-06-16 19:00:00 23 8 Nordeste 17 Nordeste 0 961.3 -- 44
2020-06-16 18:00:00 22.7 8 Nordeste 24 Este 0 961.5 -- 45
2020-06-16 17:00:00 22.8 4 Norte 22 Oeste 0 962.3 -- 42
2020-06-16 16:00:00 21 8 Noroeste 20 Noroeste 0 963.2 -- 48
2020-06-16 15:00:00 18 8 Oeste 14 Oeste 0 964.2 -- 71
2020-06-16 14:00:00 17.4 6 Sudoeste 12 Oeste 0 964.8 -- 80
2020-06-16 13:00:00 15.8 3 Nordeste 14 Noroeste 4.2 965.4 -- 91
2020-06-16 12:00:00 15.3 8 Noroeste 13 Noroeste 1.2 965.7 -- 94
2020-06-16 11:00:00 15.4 3 Noroeste 6 Noroeste 0.6 965.6 -- 88
2020-06-16 10:00:00 15.6 3 Sudeste 11 Este 0 966.1 -- 80
2020-06-16 09:00:00 15.3 8 Norte 19 Norte 0 966.3 -- 80
2020-06-16 08:00:00 15.6 5 Sudeste 9 Sur 0 965.6 -- 78
2020-06-16 07:00:00 15.3 6 Norte 18 Norte 0 965.6 -- 78
2020-06-16 06:00:00 16 12 Norte 22 Norte 0 965.4 -- 74
2020-06-16 05:00:00 16 2 Sudoeste 12 Sudoeste 0 964.8 -- 70
2020-06-16 04:00:00 16.2 4 Oeste 11 Sudoeste 0 965.1 -- 68
2020-06-16 03:00:00 15.9 3 Oeste 6 Sudoeste 0 965.5 -- 67
2020-06-16 02:00:00 17.1 4 Sudoeste 8 Sudoeste 0 965.9 -- 61
2020-06-16 01:00:00 17.7 6 Sudoeste 9 Sudoeste 0 966.1 -- 59
2020-06-16 00:00:00 19.8 6 Noroeste 19 Noroeste 0 966.3 -- 51
2020-06-15 23:00:00 21.6 5 Sudoeste 18 Noroeste 0 966 -- 44
2020-06-15 22:00:00 23.1 6 Norte 14 Norte 0 964.9 -- 34
2020-06-15 21:00:00 23.5 5 Sur 11 Norte 0 964.7 -- 44
2020-06-15 20:00:00 25.4 6 Norte 14 Norte 0 964.4 -- 29
2020-06-15 19:00:00 26.6 7 Nordeste 18 Nordeste 0 964.2 -- 28
2020-06-15 18:00:00 26.7 12 Norte 28 Norte 0 964.5 -- 28
2020-06-15 17:00:00 26.7 10 Norte 28 Norte 0 964.9 -- 27
2020-06-15 16:00:00 26.7 14 Norte 24 Noroeste 0 965.4 -- 27
2020-06-15 15:00:00 26 7 Norte 25 Noroeste 0 965.8 -- 28
2020-06-15 14:00:00 25.1 8 Norte 22 Norte 0 966.5 -- 29
2020-06-15 13:00:00 24.5 8 Norte 18 Noroeste 0 967.1 -- 31
2020-06-15 12:00:00 23.5 5 Este 11 Este 0 967.2 -- 35
2020-06-15 11:00:00 21.9 4 Nordeste 10 Sur 0 967.3 -- 41
2020-06-15 10:00:00 20.2 4 Sudeste 8 Sudeste 0 967.6 -- 46
2020-06-15 09:00:00 18.2 5 Sudoeste 13 Sudoeste 0 967.4 -- 53
2020-06-15 08:00:00 16.8 8 Sudoeste 12 Sudoeste 0 967 -- 57
2020-06-15 07:00:00 16.2 6 Sudoeste 17 Sudoeste 0 966.7 -- 58
2020-06-15 06:00:00 16.6 9 Sudoeste 18 Sudoeste 0 966.3 -- 55
2020-06-15 05:00:00 17.3 8 Sudoeste 17 Sudoeste 0 966.2 -- 52
2020-06-15 04:00:00 17.3 10 Sudoeste 19 Oeste 0 966.3 -- 50
2020-06-15 03:00:00 17.5 9 Oeste 18 Oeste 0 966.5 -- 50
2020-06-15 02:00:00 18 8 Sudoeste 13 Oeste 0 966.4 -- 47
2020-06-15 01:00:00 18.7 8 Oeste 17 Noroeste 0 966.3 -- 47
2020-06-15 00:00:00 20.4 8 Noroeste 17 Oeste 0 965.8 -- 40
2020-06-14 23:00:00 21 2 Este 7 Noroeste 0 965.3 -- 36
2020-06-14 22:00:00 21.9 6 Noroeste 11 Norte 0 964.5 -- 34
2020-06-14 21:00:00 24.1 3 Norte 13 Nordeste 0 964 -- 29
2020-06-14 20:00:00 25.2 6 Nordeste 21 Norte 0 963.4 -- 26
2020-06-14 19:00:00 25.9 8 Nordeste 23 Norte 0 963 -- 25
2020-06-14 18:00:00 26 9 Norte 24 Nordeste 0 963 -- 26
2020-06-14 17:00:00 26.5 8 Nordeste 26 Nordeste 0 963.2 -- 25
2020-06-14 16:00:00 26 9 Norte 27 Noroeste 0 963.7 -- 25
2020-06-14 15:00:00 25.2 12 Noroeste 27 Noroeste 0 964 -- 28
2020-06-14 14:00:00 24.5 9 Norte 24 Norte 0 964.5 -- 29
2020-06-14 13:00:00 24.6 8 Noroeste 23 Norte 0 964.6 -- 29
2020-06-14 12:00:00 23 7 Norte 16 Noroeste 0 964.8 -- 33
2020-06-14 11:00:00 22.4 4 Nordeste 11 Norte 0 965 -- 32
2020-06-14 10:00:00 19.9 3 Norte 13 Sudoeste 0 965.1 -- 39
2020-06-14 09:00:00 16.6 8 Sudoeste 21 Sur 0 964.9 -- 48
2020-06-14 08:00:00 15.2 10 Sudoeste 19 Sudoeste 0 964.5 -- 51
2020-06-14 07:00:00 14.5 4 Oeste 24 Sudoeste 0 964.1 -- 53
2020-06-14 06:00:00 14.4 13 Sudoeste 19 Sur 0 963.6 -- 53
2020-06-14 05:00:00 14.2 13 Sudoeste 22 Sudoeste 0 963.6 -- 54
2020-06-14 04:00:00 15 13 Sudoeste 19 Sudoeste 0 963.5 -- 51
2020-06-14 03:00:00 14.9 8 Sudoeste 14 Sudoeste 0 963.8 -- 51
2020-06-14 02:00:00 15 10 Sudoeste 15 Sudoeste 0 964.2 -- 51
2020-06-14 01:00:00 16.1 9 Sudoeste 14 Sudoeste 0 964.3 -- 47
2020-06-14 00:00:00 16.2 8 Sudoeste 11 Sudoeste 0 964.1 -- 47
2020-06-13 23:00:00 15.7 2 Noroeste 4 Noroeste 0 963.5 -- 52
2020-06-13 22:00:00 19 0 Calma 14 Norte 0 962.5 -- 40
2020-06-13 21:00:00 22.1 13 Norte 28 Norte 0 961.8 -- 28
2020-06-13 20:00:00 23.5 18 Noroeste 35 Noroeste 0 961.3 -- 24
2020-06-13 19:00:00 24.5 18 Noroeste 32 Noroeste 0 960.9 -- 22
2020-06-13 18:00:00 24 15 Noroeste 31 Oeste 0 960.8 -- 24
2020-06-13 17:00:00 24.1 21 Noroeste 40 Oeste 0 960.8 -- 21
2020-06-13 16:00:00 24 19 Oeste 39 Noroeste 0 960.8 -- 23
2020-06-13 15:00:00 23 20 Oeste 36 Oeste 0 960.9 -- 23
2020-06-13 14:00:00 22.6 18 Oeste 37 Oeste 0 960.8 -- 25
2020-06-13 13:00:00 21.5 19 Noroeste 35 Noroeste 0 960.8 -- 27
2020-06-13 12:00:00 20.2 19 Oeste 35 Oeste 0 960.8 -- 33
2020-06-13 11:00:00 18.6 19 Oeste 36 Oeste 0 960.3 -- 39
2020-06-13 10:00:00 18.4 17 Oeste 30 Oeste 0 959.5 -- 42
2020-06-13 09:00:00 17.1 15 Oeste 30 Oeste 0 959.3 -- 46
2020-06-13 08:00:00 15.7 6 Sudoeste 11 Sudoeste 0 958.5 -- 50
2020-06-13 07:00:00 12.7 2 Sur 10 Sudoeste 0 958 -- 70
2020-06-13 06:00:00 13.5 7 Oeste 17 Sudoeste 0 957.2 -- 64
2020-06-13 05:00:00 13.8 3 Sudoeste 10 Sudoeste 0 957 -- 64
2020-06-13 04:00:00 14 4 Sudoeste 9 Oeste 0 956.9 -- 62
2020-06-13 03:00:00 14.6 6 Oeste 14 Noroeste 0 956.9 -- 58
2020-06-13 02:00:00 16 7 Noroeste 19 Noroeste 0 956.7 -- 52
2020-06-13 01:00:00 16.9 10 Noroeste 21 Noroeste 0 956.1 -- 48
2020-06-13 00:00:00 18.2 9 Oeste 19 Sudoeste 0 955.3 -- 38
2020-06-12 23:00:00 17.6 9 Oeste 12 Oeste 0 954.9 -- 51
2020-06-12 22:00:00 19.6 0 Calma 10 Este 0 953.8 -- 42
2020-06-12 21:00:00 20.4 6 Este 16 Este 0 953.1 -- 39
2020-06-12 20:00:00 21.9 7 Nordeste 20 Este 0 952.5 -- 30
2020-06-12 19:00:00 24 9 Este 17 Nordeste 0 952 -- 26
2020-06-12 18:00:00 23.5 11 Norte 25 Noroeste 0 951.8 -- 25
2020-06-12 17:00:00 24.9 8 Nordeste 28 Nordeste 0 951.6 -- 24
2020-06-12 16:00:00 23.1 11 Nordeste 26 Norte 0 951.5 -- 23
2020-06-12 15:00:00 24 9 Norte 21 Norte 0 951.7 -- 23
2020-06-12 14:00:00 23.4 8 Norte 20 Nordeste 0 952 -- 24
2020-06-12 13:00:00 21.6 8 Norte 20 Nordeste 0 952 -- 27
2020-06-12 12:00:00 20.6 6 Norte 15 Este 0 952.1 -- 31
2020-06-12 11:00:00 19.8 8 Este 18 Este 0 952.2 -- 44
2020-06-12 10:00:00 17.7 9 Norte 19 Norte 0 952 -- 48
2020-06-12 09:00:00 16.3 3 Nordeste 8 Nordeste 0 951.7 -- 66
2020-06-12 08:00:00 13.8 5 Sudeste 9 Este 0 951.5 -- 85
2020-06-12 07:00:00 12.2 5 Oeste 14 Norte 0 951.2 -- 92
2020-06-12 06:00:00 12.7 5 Oeste 16 Noroeste 0 950.8 -- 91
2020-06-12 05:00:00 13.8 7 Noroeste 17 Norte 0 950.1 -- 83
2020-06-12 04:00:00 15 5 Sur 12 Sur 0 949.9 -- 75
2020-06-12 03:00:00 14.7 3 Sudoeste 11 Este 0 950.2 -- 78
2020-06-12 02:00:00 15.7 3 Sudeste 33 Noroeste 0 950.5 -- 68
2020-06-12 01:00:00 18.1 12 Noroeste 26 Oeste 0 949.9 -- 61
2020-06-12 00:00:00 18.3 14 Oeste 23 Oeste 0 949.3 -- 60
2020-06-11 23:00:00 19.9 8 Sur 25 Sur 0 948.8 -- 59
2020-06-11 22:00:00 21.3 12 Sur 26 Sur 0 948.4 -- 53
2020-06-11 21:00:00 22.6 13 Sur 21 Sudeste 0 948.4 -- 51
2020-06-11 20:00:00 24.5 0 Calma 17 Norte 0 948.6 -- 40
2020-06-11 19:00:00 24.1 6 Nordeste 22 Nordeste 0 948.9 -- 46
2020-06-11 18:00:00 24.8 7 Norte 16 Norte 0 949.4 -- 31
2020-06-11 17:00:00 26.3 8 Nordeste 20 Norte 0 949.8 -- 29
2020-06-11 16:00:00 24.7 8 Norte 22 Nordeste 0 950.8 -- 32
2020-06-11 15:00:00 25.3 9 Nordeste 20 Norte 0 951.5 -- 33
2020-06-11 14:00:00 24.1 11 Norte 22 Norte 0 952 -- 34
2020-06-11 13:00:00 22.9 13 Norte 23 Norte 0 952.5 -- 39
2020-06-11 12:00:00 22.7 6 Norte 13 Nordeste 0 953 -- 39
2020-06-11 11:00:00 21.7 4 Norte 10 Norte 0 953.7 -- 42
2020-06-11 10:00:00 19.3 4 Norte 9 Norte 0 954.5 -- 49
2020-06-11 09:00:00 16.5 4 Oeste 11 Oeste 0 955 -- 57
2020-06-11 08:00:00 15 5 Noroeste 10 Noroeste 0 955.5 -- 72
2020-06-11 07:00:00 14.2 5 Oeste 8 Oeste 0 955.8 -- 80
2020-06-11 06:00:00 14.8 4 Norte 8 Norte 0 956.2 -- 69
2020-06-11 05:00:00 15.6 4 Norte 9 Norte 0 956.8 -- 61
2020-06-11 04:00:00 15.2 3 Sudoeste 10 Sur 0 957.4 -- 64
2020-06-11 03:00:00 15.5 7 Sudoeste 11 Sudoeste 0 958.6 -- 60
2020-06-11 02:00:00 15.3 7 Sudoeste 10 Oeste 0 959.8 -- 64
2020-06-11 01:00:00 14.6 8 Oeste 10 Oeste 0 960.1 -- 73
2020-06-11 00:00:00 16.1 2 Sudoeste 13 Este 0 960.5 -- 58
2020-06-10 23:00:00 17.7 4 Noroeste 14 Norte 0 961.6 -- 47
2020-06-10 22:00:00 18.9 6 Noroeste 16 Noroeste 0 960.7 -- 40
2020-06-10 21:00:00 19.8 10 Noroeste 20 Noroeste 0 960.3 -- 37
2020-06-10 20:00:00 20.7 12 Norte 22 Noroeste 0 960.1 -- 32
2020-06-10 19:00:00 21.7 15 Norte 32 Norte 0 960.1 -- 31
2020-06-10 18:00:00 22.3 16 Noroeste 29 Norte 0 960.3 -- 29
2020-06-10 17:00:00 23 16 Norte 29 Norte 0 960.6 -- 27
2020-06-10 16:00:00 22.5 15 Noroeste 31 Norte 0 961 -- 29
2020-06-10 15:00:00 21.7 10 Noroeste 30 Noroeste 0 961.7 -- 30
2020-06-10 14:00:00 20.7 14 Noroeste 29 Noroeste 0 962.3 -- 30
2020-06-10 13:00:00 20.2 16 Oeste 31 Noroeste 0 962.9 -- 34
2020-06-10 12:00:00 18.9 14 Noroeste 28 Noroeste 0 963.3 -- 35
2020-06-10 11:00:00 17.4 15 Noroeste 31 Noroeste 0 963.6 -- 43
2020-06-10 10:00:00 16.4 14 Noroeste 30 Noroeste 0 964 -- 47
2020-06-10 09:00:00 14.7 14 Oeste 24 Oeste 0 964.2 -- 54
2020-06-10 08:00:00 13.8 9 Sudoeste 16 Oeste 0 964.2 -- 57
2020-06-10 07:00:00 11.5 9 Oeste 20 Oeste 0 964.3 -- 68
2020-06-10 06:00:00 11.7 11 Oeste 20 Oeste 0 963.8 -- 66
2020-06-10 05:00:00 12 13 Sudoeste 28 Sudoeste 0 963.8 -- 64
2020-06-10 04:00:00 12.5 14 Sudoeste 24 Sudoeste 0 964 -- 62
2020-06-10 03:00:00 12.4 12 Sudoeste 20 Sudoeste 0 964.4 -- 64
2020-06-10 02:00:00 12.5 10 Sudoeste 22 Sudoeste 0 964.8 -- 63
2020-06-10 01:00:00 13.7 11 Sudoeste 21 Oeste 0 965 -- 55
2020-06-10 00:00:00 14.1 11 Oeste -- -- 0 965 -- 52